Time;durP1;ratioP1;P1;durP2;ratioP2;P2;SDS_P1;SDS_P2;PMS_P1;PMS_P2;Temp;Humidity;BMP_temperature;BMP_pressure;BME280_temperature;BME280_humidity;BME280_pressure;Samples;Min_cycle;Max_cycle;Signal;HPM_P1;HPM_P2
2023/05/07 00:02:25;;;;;;;2.67;2.47;;;11.90;88.70;;;;;;6005847;23;20164;-74
2023/05/07 00:04:51;;;;;;;2.67;2.42;;;11.90;88.00;;;;;;6005571;23;20530;-74
2023/05/07 00:07:17;;;;;;;3.58;2.85;;;11.80;88.80;;;;;;6005771;23;20307;-75
2023/05/07 00:09:43;;;;;;;3.13;2.47;;;11.60;90.00;;;;;;6005692;23;20624;-75
2023/05/07 00:12:08;;;;;;;2.60;2.40;;;11.50;90.00;;;;;;6005423;23;20192;-76
2023/05/07 00:14:34;;;;;;;2.45;2.30;;;11.50;88.80;;;;;;6005347;23;20152;-75
2023/05/07 00:17:00;;;;;;;3.92;2.33;;;11.50;88.70;;;;;;6005314;23;20193;-74
2023/05/07 00:19:25;;;;;;;2.63;2.42;;;11.60;88.30;;;;;;6005596;23;20163;-75
2023/05/07 00:21:53;;;;;;;2.22;2.10;;;11.60;88.10;;;;;;6005005;23;20148;-74
2023/05/07 00:24:19;;;;;;;2.85;2.17;;;11.60;88.50;;;;;;6005257;23;20802;-77
2023/05/07 00:26:44;;;;;;;2.17;2.05;;;11.60;88.30;;;;;;6006280;23;20156;-76
2023/05/07 00:29:10;;;;;;;1.98;1.88;;;11.60;88.20;;;;;;6005709;23;20526;-74
2023/05/07 00:31:35;;;;;;;3.90;2.22;;;11.50;88.60;;;;;;6005595;23;20235;-74
2023/05/07 00:34:01;;;;;;;1.92;1.83;;;11.50;88.30;;;;;;6005883;23;20196;-74
2023/05/07 00:36:27;;;;;;;5.72;2.05;;;11.40;88.40;;;;;;6005667;23;20544;-77
2023/05/07 00:38:54;;;;;;;1.98;1.88;;;11.40;88.60;;;;;;6005361;23;20184;-75
2023/05/07 00:41:20;;;;;;;2.22;1.85;;;11.40;89.10;;;;;;6005143;23;20164;-75
2023/05/07 00:43:45;;;;;;;3.08;2.30;;;11.40;89.20;;;;;;6005988;23;20517;-75
2023/05/07 00:46:12;;;;;;;2.30;1.90;;;11.40;89.20;;;;;;6005637;23;20558;-74
2023/05/07 00:48:38;;;;;;;2.25;2.15;;;11.40;89.20;;;;;;6003379;23;20176;-75
2023/05/07 00:51:03;;;;;;;2.70;2.50;;;11.40;89.10;;;;;;6006098;23;20510;-74
2023/05/07 00:53:30;;;;;;;3.03;2.10;;;11.40;89.10;;;;;;6005213;23;20187;-75
2023/05/07 00:55:56;;;;;;;2.65;2.20;;;11.40;89.10;;;;;;6005154;23;20165;-75
2023/05/07 00:58:23;;;;;;;3.20;2.17;;;11.40;89.20;;;;;;6006402;23;20156;-75
2023/05/07 01:00:48;;;;;;;2.22;2.03;;;11.30;89.40;;;;;;6005104;23;20930;-75
2023/05/07 01:03:14;;;;;;;2.15;2.03;;;11.30;89.30;;;;;;6005674;23;20216;-75
2023/05/07 01:05:42;;;;;;;2.80;2.60;;;11.30;89.10;;;;;;6005476;23;20784;-76
2023/05/07 01:08:08;;;;;;;2.58;2.42;;;11.30;89.00;;;;;;6004993;23;20200;-76
2023/05/07 01:10:34;;;;;;;2.25;2.10;;;11.20;88.70;;;;;;6005014;23;20159;-74
2023/05/07 01:13:00;;;;;;;2.63;2.08;;;11.20;89.60;;;;;;6005419;23;20267;-74
2023/05/07 01:15:26;;;;;;;2.28;2.08;;;11.20;89.60;;;;;;6005109;23;20157;-75
2023/05/07 01:17:51;;;;;;;4.18;2.33;;;11.10;89.90;;;;;;6005053;23;20232;-75
2023/05/07 01:20:18;;;;;;;2.20;1.77;;;11.10;89.70;;;;;;6005499;23;20569;-75
2023/05/07 01:22:44;;;;;;;5.28;2.15;;;11.10;89.70;;;;;;6004658;23;20239;-75
2023/05/07 01:25:10;;;;;;;2.15;2.05;;;11.00;90.10;;;;;;6005204;23;20220;-75
2023/05/07 01:27:37;;;;;;;1.67;1.58;;;11.00;90.20;;;;;;6004913;23;20510;-75
2023/05/07 01:30:06;;;;;;;2.13;2.03;;;11.00;90.00;;;;;;6003728;23;20157;-76
2023/05/07 01:32:47;;;;;;;4.38;1.88;;;11.00;90.70;;;;;;6005532;23;20562;-76
2023/05/07 01:35:18;;;;;;;2.13;1.80;;;10.90;89.90;;;;;;6005630;23;20145;-74
2023/05/07 01:37:45;;;;;;;2.15;2.05;;;10.90;89.80;;;;;;6005958;23;20145;-74
2023/05/07 01:40:11;;;;;;;2.00;1.83;;;10.90;89.90;;;;;;6007157;23;20156;-74
2023/05/07 01:42:37;;;;;;;1.60;1.60;;;10.90;90.30;;;;;;6007275;23;20167;-76
2023/05/07 01:45:02;;;;;;;2.00;1.90;;;10.90;90.20;;;;;;6007547;23;20176;-76
2023/05/07 01:47:29;;;;;;;1.88;1.77;;;10.90;90.00;;;;;;6007352;23;20188;-76
2023/05/07 01:49:55;;;;;;;2.47;2.05;;;10.90;90.20;;;;;;6007663;23;20166;-76
2023/05/07 01:52:21;;;;;;;1.73;1.65;;;10.90;90.00;;;;;;6007238;23;20187;-74
2023/05/07 01:54:47;;;;;;;1.10;1.10;;;;;;;;;;6007152;23;20153;-75
2023/05/07 01:57:13;;;;;;;1.50;1.40;;;10.80;90.20;;;;;;6007255;23;20348;-76
2023/05/07 01:59:38;;;;;;;1.67;1.58;;;10.80;90.20;;;;;;6007078;23;20640;-76
2023/05/07 02:02:04;;;;;;;1.25;1.20;;;10.70;90.50;;;;;;6006791;23;20240;-75
2023/05/07 02:04:29;;;;;;;3.80;1.70;;;10.60;90.40;;;;;;6007038;23;20188;-75
2023/05/07 02:06:55;;;;;;;1.52;1.40;;;10.70;90.30;;;;;;6006455;23;20167;-75
2023/05/07 02:09:22;;;;;;;1.50;1.50;;;10.60;90.50;;;;;;6007126;23;20215;-75
2023/05/07 02:11:48;;;;;;;1.30;1.30;;;10.60;90.60;;;;;;6006645;23;20149;-75
2023/05/07 02:14:14;;;;;;;1.50;1.50;;;10.60;90.50;;;;;;6006888;23;20220;-76
2023/05/07 02:16:40;;;;;;;1.38;1.30;;;10.60;90.70;;;;;;6007459;23;20156;-75
2023/05/07 02:19:05;;;;;;;1.38;1.38;;;10.50;90.70;;;;;;6006757;23;20617;-76
2023/05/07 02:21:31;;;;;;;1.08;1.08;;;;;;;;;;6005069;23;20196;-75
2023/05/07 02:23:57;;;;;;;1.15;1.15;;;10.50;90.20;;;;;;6006487;23;20164;-75
2023/05/07 02:26:22;;;;;;;1.27;1.17;;;10.40;90.30;;;;;;6006907;23;20156;-74
2023/05/07 02:28:48;;;;;;;0.88;0.88;;;10.40;90.20;;;;;;6006735;23;20153;-74
2023/05/07 02:31:14;;;;;;;1.17;1.17;;;10.30;90.50;;;;;;6006959;23;20149;-75
2023/05/07 02:33:39;;;;;;;1.20;1.10;;;10.20;90.50;;;;;;6005283;23;20244;-75
2023/05/07 02:36:10;;;;;;;0.82;0.82;;;10.10;92.10;;;;;;6006159;23;20156;-75
2023/05/07 02:38:35;;;;;;;1.08;1.08;;;10.10;91.90;;;;;;6006250;23;20152;-75
2023/05/07 02:41:01;;;;;;;0.95;0.95;;;10.10;91.70;;;;;;6006183;23;20148;-75
2023/05/07 02:43:27;;;;;;;1.17;1.17;;;10.00;92.90;;;;;;6006454;23;20166;-75
2023/05/07 02:46:04;;;;;;;0.95;0.93;;;9.90;93.70;;;;;;6007039;23;20241;-75
2023/05/07 02:48:30;;;;;;;1.58;1.30;;;9.90;93.70;;;;;;6006546;23;20172;-76
2023/05/07 02:50:56;;;;;;;1.35;1.10;;;9.90;92.70;;;;;;6005321;23;20263;-75
2023/05/07 02:53:21;;;;;;;0.93;0.93;;;9.90;92.60;;;;;;6004943;23;20188;-76
2023/05/07 02:55:47;;;;;;;1.30;1.20;;;9.90;93.60;;;;;;6006496;23;20159;-75
2023/05/07 02:58:13;;;;;;;1.52;1.20;;;9.90;92.60;;;;;;6006773;23;20148;-74
2023/05/07 03:00:38;;;;;;;1.17;1.13;;;9.90;93.40;;;;;;6005858;23;20488;-75
2023/05/07 03:03:04;;;;;;;2.05;1.10;;;9.90;93.30;;;;;;6006541;23;20156;-75
2023/05/07 03:05:30;;;;;;;3.60;1.20;;;9.80;92.80;;;;;;6006252;23;20159;-75
2023/05/07 03:07:55;;;;;;;1.60;1.50;;;9.90;92.70;;;;;;6006512;23;20157;-76
2023/05/07 03:10:21;;;;;;;2.13;1.30;;;9.40;95.60;;;;;;6006566;23;20174;-74
2023/05/07 03:12:46;;;;;;;1.90;1.30;;;9.50;95.70;;;;;;6006078;23;20177;-75
2023/05/07 03:15:12;;;;;;;1.15;1.15;;;9.50;95.40;;;;;;6006399;23;20631;-74
2023/05/07 03:17:39;;;;;;;2.35;1.90;;;9.60;93.70;;;;;;6006445;23;20161;-76
2023/05/07 03:20:05;;;;;;;0.95;0.93;;;9.70;93.60;;;;;;6006397;23;20175;-75
2023/05/07 03:22:31;;;;;;;2.13;1.45;;;9.70;93.40;;;;;;6004687;23;20647;-75
2023/05/07 03:24:56;;;;;;;1.55;1.20;;;9.80;93.20;;;;;;6006208;23;20152;-75
2023/05/07 03:27:22;;;;;;;3.25;1.77;;;9.80;93.00;;;;;;6005491;23;20159;-75
2023/05/07 03:29:48;;;;;;;1.63;1.52;;;9.80;93.00;;;;;;6004660;23;20168;-75
2023/05/07 03:32:14;;;;;;;2.63;1.50;;;9.80;92.50;;;;;;6005936;23;20238;-75
2023/05/07 03:34:39;;;;;;;1.60;1.23;;;9.80;92.20;;;;;;6003998;23;20583;-73
2023/05/07 03:37:05;;;;;;;1.83;1.60;;;9.70;93.30;;;;;;6005060;23;20152;-73
2023/05/07 03:39:31;;;;;;;2.30;1.45;;;9.50;95.30;;;;;;6006026;23;20155;-74
2023/05/07 03:41:57;;;;;;;1.45;1.45;;;9.40;96.10;;;;;;6006058;23;20155;-76
2023/05/07 03:44:23;;;;;;;1.30;1.30;;;9.30;96.60;;;;;;6006053;23;20156;-74
2023/05/07 03:46:49;;;;;;;1.48;1.38;;;9.40;96.00;;;;;;6006199;23;20156;-76
2023/05/07 03:49:14;;;;;;;1.63;1.52;;;9.30;96.60;;;;;;6006366;23;20141;-74
2023/05/07 03:51:41;;;;;;;1.50;1.40;;;9.30;96.90;;;;;;6006088;23;20152;-74
2023/05/07 03:54:07;;;;;;;1.52;1.42;;;9.30;96.80;;;;;;6005563;23;20189;-74
2023/05/07 03:56:32;;;;;;;2.53;1.58;;;9.20;97.10;;;;;;6006577;23;20152;-75
2023/05/07 03:58:58;;;;;;;1.73;1.63;;;9.30;97.20;;;;;;6005026;23;20217;-75
2023/05/07 04:01:24;;;;;;;0.98;0.98;;;9.20;97.20;;;;;;6005868;23;20148;-75
2023/05/07 04:03:49;;;;;;;1.30;1.20;;;9.20;97.30;;;;;;6003777;23;20171;-74
2023/05/07 04:06:17;;;;;;;1.25;1.25;;;9.30;96.50;;;;;;6004814;23;20164;-74
2023/05/07 04:08:43;;;;;;;1.60;1.50;;;9.50;95.40;;;;;;6005905;23;20514;-75
2023/05/07 04:11:08;;;;;;;1.55;1.45;;;9.60;94.70;;;;;;6006166;23;20240;-75
2023/05/07 04:13:34;;;;;;;1.17;1.17;;;9.60;94.10;;;;;;6004315;23;20184;-75
2023/05/07 04:16:02;;;;;;;2.85;1.52;;;9.50;95.80;;;;;;6006085;23;20544;-76
2023/05/07 04:18:27;;;;;;;1.67;1.58;;;9.50;95.90;;;;;;6002761;23;20728;-75
2023/05/07 04:20:53;;;;;;;1.10;1.10;;;;;;;;;;6005876;23;20160;-74
2023/05/07 04:23:19;;;;;;;2.67;1.92;;;9.60;95.40;;;;;;6005810;23;20529;-74
2023/05/07 04:25:45;;;;;;;1.60;1.50;;;9.60;95.20;;;;;;6006258;23;20156;-74
2023/05/07 04:28:11;;;;;;;1.77;1.67;;;9.70;95.10;;;;;;6005932;23;20163;-74
2023/05/07 04:30:37;;;;;;;1.52;1.52;;;9.70;94.90;;;;;;6006143;23;20228;-74
2023/05/07 04:33:03;;;;;;;1.98;1.88;;;9.70;95.70;;;;;;6005183;23;20208;-74
2023/05/07 04:35:28;;;;;;;2.08;2.05;;;9.70;95.80;;;;;;6005443;23;20235;-75
2023/05/07 04:37:54;;;;;;;2.03;1.67;;;9.70;95.90;;;;;;6005709;23;20180;-76
2023/05/07 04:40:20;;;;;;;2.05;1.73;;;9.70;96.10;;;;;;6005815;23;20235;-75
2023/05/07 04:42:45;;;;;;;2.17;1.73;;;9.80;95.30;;;;;;6005834;23;20164;-74
2023/05/07 04:45:12;;;;;;;1.48;1.40;;;9.80;95.30;;;;;;6005638;23;20207;-75
2023/05/07 04:47:38;;;;;;;2.05;1.92;;;9.90;95.10;;;;;;6005527;23;20168;-76
2023/05/07 04:50:06;;;;;;;1.85;1.73;;;9.90;95.50;;;;;;6005399;23;20168;-76
2023/05/07 04:52:31;;;;;;;2.70;1.70;;;9.90;95.40;;;;;;6005799;23;20190;-74
2023/05/07 04:55:00;;;;;;;1.67;1.60;;;10.00;95.30;;;;;;6005765;23;20223;-75
2023/05/07 04:57:26;;;;;;;1.85;1.75;;;10.10;94.60;;;;;;6005758;23;20152;-73
2023/05/07 04:59:52;;;;;;;2.00;1.83;;;10.10;95.10;;;;;;6003888;23;20157;-74
2023/05/07 05:02:17;;;;;;;1.50;1.50;;;10.10;95.00;;;;;;6005592;23;20514;-75
2023/05/07 05:04:43;;;;;;;1.52;1.52;;;10.20;95.00;;;;;;6005283;23;20148;-75
2023/05/07 05:07:09;;;;;;;1.95;1.40;;;10.30;94.50;;;;;;6004547;23;20172;-75
2023/05/07 05:09:34;;;;;;;1.33;1.23;;;10.30;94.50;;;;;;6005705;23;20183;-76
2023/05/07 05:12:00;;;;;;;1.83;1.70;;;10.40;94.30;;;;;;6006382;23;20628;-75
2023/05/07 05:14:26;;;;;;;3.58;1.48;;;10.40;94.30;;;;;;6007361;23;20148;-74
2023/05/07 05:16:51;;;;;;;1.30;1.20;;;10.60;93.30;;;;;;6007412;23;20240;-75
2023/05/07 05:19:17;;;;;;;1.70;1.60;;;10.80;92.90;;;;;;6007368;23;20152;-76
2023/05/07 05:21:43;;;;;;;1.63;1.52;;;10.80;93.00;;;;;;6006755;23;20199;-74
2023/05/07 05:24:08;;;;;;;1.60;1.25;;;10.90;92.70;;;;;;6007200;23;20628;-75
2023/05/07 05:26:34;;;;;;;2.33;1.35;;;11.00;92.30;;;;;;6006642;23;20156;-75
2023/05/07 05:29:00;;;;;;;1.70;1.63;;;11.00;92.30;;;;;;6006449;23;20156;-74
2023/05/07 05:31:26;;;;;;;1.75;1.60;;;11.10;91.80;;;;;;6006616;23;20159;-74
2023/05/07 05:33:51;;;;;;;1.02;1.02;;;11.20;91.80;;;;;;6006654;23;20184;-72
2023/05/07 05:36:17;;;;;;;1.23;1.15;;;11.20;91.70;;;;;;6007077;23;20926;-75
2023/05/07 05:38:44;;;;;;;1.48;1.38;;;11.30;91.60;;;;;;6006457;23;20156;-74
2023/05/07 05:41:09;;;;;;;1.60;1.55;;;11.40;91.20;;;;;;6005185;23;20184;-74
2023/05/07 05:43:35;;;;;;;3.13;1.48;;;11.50;91.10;;;;;;6005524;23;20208;-76
2023/05/07 05:46:01;;;;;;;1.50;1.40;;;11.50;91.10;;;;;;6001367;23;20742;-75
2023/05/07 05:48:28;;;;;;;1.42;1.33;;;11.60;91.10;;;;;;6003456;23;20220;-73
2023/05/07 05:50:54;;;;;;;1.77;1.67;;;11.70;91.00;;;;;;6003729;23;20156;-73
2023/05/07 05:53:20;;;;;;;2.47;1.95;;;11.80;90.90;;;;;;6004581;23;20307;-74
2023/05/07 05:55:46;;;;;;;1.95;1.83;;;11.80;90.60;;;;;;6005744;23;20231;-75
2023/05/07 05:58:13;;;;;;;2.40;2.22;;;11.90;90.60;;;;;;6005370;23;20240;-73
2023/05/07 06:00:38;;;;;;;3.75;1.75;;;12.00;90.40;;;;;;6007036;23;20153;-74
2023/05/07 06:03:04;;;;;;;2.38;2.20;;;12.10;90.20;;;;;;6005962;23;20160;-74
2023/05/07 06:05:30;;;;;;;1.85;1.75;;;12.20;90.20;;;;;;6006345;23;20183;-73
2023/05/07 06:07:56;;;;;;;2.42;2.22;;;12.20;90.00;;;;;;6006748;23;20236;-73
2023/05/07 06:10:21;;;;;;;2.33;2.15;;;12.30;90.10;;;;;;6007208;23;20149;-73
2023/05/07 06:12:47;;;;;;;2.13;1.45;;;12.30;89.90;;;;;;6006905;23;20592;-74
2023/05/07 06:15:12;;;;;;;3.13;1.98;;;12.50;89.60;;;;;;6007100;23;20597;-74
2023/05/07 06:17:38;;;;;;;1.85;1.75;;;12.50;89.30;;;;;;6005208;23;20601;-74
2023/05/07 06:20:04;;;;;;;3.33;1.98;;;12.60;89.10;;;;;;6007262;23;20243;-74
2023/05/07 06:22:30;;;;;;;1.88;1.77;;;12.70;88.80;;;;;;6005709;23;20681;-73
2023/05/07 06:24:56;;;;;;;2.22;2.13;;;12.80;88.80;;;;;;6006222;23;20153;-72
2023/05/07 06:27:21;;;;;;;2.17;1.85;;;12.90;88.60;;;;;;6007354;23;20605;-73
2023/05/07 06:29:48;;;;;;;2.33;2.03;;;13.00;88.40;;;;;;6007039;23;20635;-73
2023/05/07 06:32:14;;;;;;;3.42;1.83;;;13.00;88.30;;;;;;6007006;23;20203;-73
2023/05/07 06:34:40;;;;;;;2.60;2.47;;;13.10;88.30;;;;;;6006947;23;20620;-72
2023/05/07 06:37:06;;;;;;;2.95;2.38;;;13.20;88.10;;;;;;6006665;23;20149;-73
2023/05/07 06:39:33;;;;;;;2.35;2.15;;;13.30;87.70;;;;;;6005855;23;20168;-73
2023/05/07 06:42:01;;;;;;;2.00;1.90;;;13.40;87.20;;;;;;6006485;23;20573;-73
2023/05/07 06:44:27;;;;;;;3.38;2.40;;;13.40;86.90;;;;;;6006862;23;20204;-74
2023/05/07 06:46:52;;;;;;;3.08;2.20;;;13.50;86.80;;;;;;6005918;23;20204;-74
2023/05/07 06:49:18;;;;;;;2.50;2.33;;;13.60;86.50;;;;;;6005823;23;20232;-74
2023/05/07 06:51:44;;;;;;;2.53;2.25;;;13.70;86.50;;;;;;6006348;23;20193;-74
2023/05/07 06:54:09;;;;;;;2.22;1.98;;;13.80;85.40;;;;;;6005828;23;20192;-72
2023/05/07 06:56:35;;;;;;;2.28;2.17;;;13.80;85.30;;;;;;6006465;23;20601;-73
2023/05/07 06:59:02;;;;;;;2.45;2.35;;;13.90;85.30;;;;;;6005232;23;20164;-74
2023/05/07 07:01:28;;;;;;;2.10;2.00;;;14.00;84.50;;;;;;6006123;23;20180;-74
2023/05/07 07:03:53;;;;;;;2.50;2.28;;;14.00;83.60;;;;;;6006452;23;20208;-73
2023/05/07 07:06:19;;;;;;;2.35;2.17;;;14.10;84.10;;;;;;6005913;23;20164;-73
2023/05/07 07:08:45;;;;;;;2.63;2.42;;;14.20;83.50;;;;;;6006124;23;20181;-76
2023/05/07 07:11:11;;;;;;;2.25;2.13;;;14.30;82.80;;;;;;6006035;23;20168;-73
2023/05/07 07:13:37;;;;;;;4.07;2.38;;;14.30;82.90;;;;;;6005781;23;20638;-74
2023/05/07 07:16:03;;;;;;;2.28;2.08;;;14.40;83.30;;;;;;6006257;23;20157;-74
2023/05/07 07:18:28;;;;;;;2.50;2.17;;;14.40;82.90;;;;;;6006692;23;20148;-74
2023/05/07 07:20:54;;;;;;;2.55;2.35;;;14.50;83.30;;;;;;6006383;23;20159;-74
2023/05/07 07:23:20;;;;;;;2.22;2.13;;;14.60;83.40;;;;;;6006053;23;20160;-73
2023/05/07 07:25:46;;;;;;;2.28;2.15;;;14.80;83.30;;;;;;6006559;23;20153;-73
2023/05/07 07:28:11;;;;;;;2.92;2.72;;;14.80;83.30;;;;;;6006284;23;20192;-74
2023/05/07 07:30:38;;;;;;;5.22;2.80;;;14.90;83.00;;;;;;6004250;23;20157;-73
2023/05/07 07:33:04;;;;;;;2.60;2.40;;;15.10;82.40;;;;;;6006284;23;20188;-75
2023/05/07 07:35:33;;;;;;;3.08;2.88;;;15.20;81.80;;;;;;6005659;23;20811;-76
2023/05/07 07:37:59;;;;;;;2.88;2.70;;;15.30;81.50;;;;;;6004149;23;20192;-76
2023/05/07 07:40:25;;;;;;;3.30;2.97;;;15.30;81.50;;;;;;6004139;23;20232;-76
2023/05/07 07:42:52;;;;;;;2.50;2.40;;;15.40;81.70;;;;;;6005355;23;20565;-76
2023/05/07 07:45:18;;;;;;;2.72;2.53;;;15.50;80.90;;;;;;6006227;23;20612;-75
2023/05/07 07:47:43;;;;;;;3.22;2.92;;;15.60;80.60;;;;;;6006093;23;20200;-76
2023/05/07 07:50:09;;;;;;;2.45;2.13;;;15.70;80.50;;;;;;6006238;23;20684;-75
2023/05/07 07:52:35;;;;;;;3.92;2.40;;;15.80;80.20;;;;;;6005700;23;20180;-76
2023/05/07 07:55:01;;;;;;;2.47;2.35;;;15.90;79.40;;;;;;6006296;23;20172;-75
2023/05/07 07:57:27;;;;;;;3.67;3.38;;;15.90;78.50;;;;;;6006688;23;20201;-75
2023/05/07 07:59:53;;;;;;;2.88;2.65;;;;;;;;;;6006345;23;20522;-77
2023/05/07 08:02:18;;;;;;;8.43;2.92;;;16.10;78.30;;;;;;6006258;23;20228;-75
2023/05/07 08:04:45;;;;;;;2.58;2.40;;;16.20;78.40;;;;;;6004971;23;20517;-77
2023/05/07 08:07:11;;;;;;;2.40;2.22;;;16.30;77.50;;;;;;6006207;23;20244;-77
2023/05/07 08:09:37;;;;;;;4.95;3.03;;;16.40;77.20;;;;;;6006600;23;20191;-76
2023/05/07 08:12:04;;;;;;;4.18;2.83;;;16.50;76.00;;;;;;6006334;23;20220;-76
2023/05/07 08:14:30;;;;;;;2.75;2.50;;;16.70;76.70;;;;;;6006336;23;20152;-76
2023/05/07 08:16:56;;;;;;;3.45;3.15;;;16.70;76.60;;;;;;6005901;23;20157;-75
2023/05/07 08:19:21;;;;;;;4.38;3.10;;;16.80;76.30;;;;;;6006431;23;20152;-75
2023/05/07 08:21:47;;;;;;;3.25;3.05;;;16.90;74.30;;;;;;6006130;23;20155;-74
2023/05/07 08:24:17;;;;;;;3.03;2.83;;;17.00;73.80;;;;;;6005938;23;20166;-76
2023/05/07 08:26:45;;;;;;;2.90;2.70;;;17.10;73.40;;;;;;6006150;23;20180;-77
2023/05/07 08:29:11;;;;;;;2.30;2.15;;;17.20;73.80;;;;;;6006214;23;20180;-76
2023/05/07 08:31:38;;;;;;;2.92;2.83;;;17.30;74.70;;;;;;6004622;23;20163;-75
2023/05/07 08:34:05;;;;;;;2.97;2.88;;;17.50;74.70;;;;;;6006230;23;20191;-74
2023/05/07 08:36:30;;;;;;;2.85;2.63;;;17.60;73.30;;;;;;6006668;23;20160;-76
2023/05/07 08:38:56;;;;;;;2.47;2.42;;;17.80;73.50;;;;;;6006062;23;20509;-75
2023/05/07 08:41:22;;;;;;;2.80;2.60;;;18.00;74.10;;;;;;6006236;23;20174;-77
2023/05/07 08:43:51;;;;;;;3.00;2.70;;;18.20;74.30;;;;;;6006124;23;20152;-76
2023/05/07 08:46:21;;;;;;;2.95;2.67;;;18.40;73.70;;;;;;6005750;23;20167;-74
2023/05/07 08:48:50;;;;;;;2.35;2.20;;;18.60;70.40;;;;;;6006466;23;20569;-75
2023/05/07 08:51:18;;;;;;;2.35;2.25;;;18.60;70.40;;;;;;6004436;23;20188;-75
2023/05/07 08:53:44;;;;;;;3.05;2.85;;;18.80;69.00;;;;;;6005886;23;20200;-75
2023/05/07 08:56:12;;;;;;;5.80;3.45;;;18.80;68.30;;;;;;6006035;23;20878;-76
2023/05/07 08:58:37;;;;;;;3.13;2.92;;;18.90;68.30;;;;;;6006388;23;20227;-76
2023/05/07 09:01:10;;;;;;;2.60;2.40;;;19.00;70.60;;;;;;6006081;23;20601;-75
2023/05/07 09:03:38;;;;;;;3.33;2.58;;;19.20;69.60;;;;;;6006130;23;20144;-76
2023/05/07 09:06:04;;;;;;;2.30;2.20;;;19.30;69.90;;;;;;6006406;23;20495;-76
2023/05/07 09:08:32;;;;;;;2.30;2.20;;;19.50;70.40;;;;;;6006269;23;20160;-76
2023/05/07 09:10:57;;;;;;;2.70;2.60;;;19.60;68.20;;;;;;6004530;23;20156;-76
2023/05/07 09:13:23;;;;;;;4.30;2.65;;;19.80;67.80;;;;;;6005892;23;20583;-75
2023/05/07 09:15:49;;;;;;;2.63;2.50;;;19.90;67.40;;;;;;6006200;23;20248;-76
2023/05/07 09:18:15;;;;;;;2.50;2.40;;;20.00;68.00;;;;;;6005795;23;20149;-75
2023/05/07 09:20:40;;;;;;;2.50;2.38;;;20.20;66.30;;;;;;6005922;23;20617;-75
2023/05/07 09:23:07;;;;;;;3.25;3.03;;;20.30;64.90;;;;;;6006105;23;20156;-75
2023/05/07 09:25:34;;;;;;;2.60;2.45;;;20.50;64.80;;;;;;6006077;23;20312;-75
2023/05/07 09:28:01;;;;;;;2.97;2.13;;;20.60;66.10;;;;;;6006264;23;20907;-76
2023/05/07 09:30:30;;;;;;;2.30;2.20;;;20.70;63.60;;;;;;6005998;23;20153;-75
2023/05/07 09:33:00;;;;;;;2.20;2.10;;;20.80;64.80;;;;;;6006157;23;20248;-74
2023/05/07 09:35:27;;;;;;;4.63;2.30;;;20.90;64.20;;;;;;6006060;23;20688;-75
2023/05/07 09:38:00;;;;;;;2.47;2.30;;;21.20;64.30;;;;;;6004115;23;20171;-76
2023/05/07 09:40:30;;;;;;;2.35;2.25;;;21.40;62.60;;;;;;6005847;23;20187;-75
2023/05/07 09:43:08;;;;;;;2.47;2.28;;;21.70;61.30;;;;;;6005379;23;20573;-75
2023/05/07 09:45:33;;;;;;;4.03;2.53;;;22.10;62.70;;;;;;6006072;23;20140;-75
2023/05/07 09:48:03;;;;;;;2.63;1.95;;;22.60;61.60;;;;;;6006038;23;20199;-75
2023/05/07 09:50:35;;;;;;;2.05;2.05;;;23.10;60.10;;;;;;6004405;23;20164;-76
2023/05/07 09:53:02;;;;;;;1.70;1.60;;;23.70;59.70;;;;;;6005925;23;20644;-75
2023/05/07 09:55:28;;;;;;;2.08;1.92;;;24.40;56.50;;;;;;6005735;23;20157;-76
2023/05/07 09:57:55;;;;;;;1.92;1.63;;;25.20;54.30;;;;;;6005982;23;20159;-75
2023/05/07 10:00:22;;;;;;;1.63;1.58;;;26.00;53.20;;;;;;6007523;23;20157;-75
2023/05/07 10:02:52;;;;;;;3.58;1.58;;;26.70;54.40;;;;;;6007050;23;20561;-75
2023/05/07 10:05:20;;;;;;;2.20;2.10;;;27.40;52.00;;;;;;6006582;23;20620;-75
2023/05/07 10:07:46;;;;;;;2.05;2.05;;;28.30;52.00;;;;;;6007466;23;20622;-75
2023/05/07 10:10:12;;;;;;;1.92;1.83;;;29.10;49.80;;;;;;6007190;23;20231;-74
2023/05/07 10:12:40;;;;;;;1.40;1.40;;;29.90;48.60;;;;;;6005664;23;20192;-76
2023/05/07 10:15:10;;;;;;;3.10;1.85;;;30.50;46.70;;;;;;6005486;23;20544;-74
2023/05/07 10:17:38;;;;;;;2.20;2.10;;;31.20;45.90;;;;;;6007363;23;20141;-74
2023/05/07 10:20:04;;;;;;;2.05;2.00;;;31.60;44.80;;;;;;6006963;23;20220;-75
2023/05/07 10:22:45;;;;;;;1.65;1.55;;;32.40;44.00;;;;;;6007090;23;20166;-75
2023/05/07 10:25:30;;;;;;;1.63;1.63;;;32.50;43.90;;;;;;6004898;23;20148;-74
2023/05/07 10:28:03;;;;;;;1.98;1.98;;;32.10;43.10;;;;;;6007176;23;20136;-74
2023/05/07 10:30:46;;;;;;;1.88;1.88;;;30.80;44.20;;;;;;6005999;23;20184;-75
2023/05/07 10:33:15;;;;;;;1.85;1.85;;;29.80;45.50;;;;;;6006815;23;20175;-74
2023/05/07 10:35:42;;;;;;;1.77;1.70;;;29.50;46.10;;;;;;6005958;23;20156;-75
2023/05/07 10:38:08;;;;;;;2.10;1.98;;;29.30;46.50;;;;;;6007060;23;20176;-74
2023/05/07 10:40:35;;;;;;;3.30;2.03;;;29.40;47.70;;;;;;6007312;23;20156;-75
2023/05/07 10:43:04;;;;;;;1.90;1.80;;;29.90;46.10;;;;;;6007029;23;20164;-75
2023/05/07 10:45:31;;;;;;;2.03;2.03;;;30.50;45.30;;;;;;6007456;23;20160;-77
2023/05/07 10:48:23;;;;;;;1.67;1.67;;;30.50;44.30;;;;;;6007299;23;20277;-75
2023/05/07 10:50:48;;;;;;;1.80;1.80;;;30.70;44.70;;;;;;6005535;23;20156;-74
2023/05/07 10:53:17;;;;;;;1.88;1.80;;;30.90;45.60;;;;;;6006839;23;20211;-74
2023/05/07 10:55:43;;;;;;;1.80;1.80;;;31.00;44.60;;;;;;6007098;23;20152;-74
2023/05/07 10:58:28;;;;;;;2.00;1.95;;;31.20;44.40;;;;;;6006862;23;20152;-75
2023/05/07 11:01:01;;;;;;;2.28;2.17;;;31.70;44.80;;;;;;6006982;23;20167;-74
2023/05/07 11:03:28;;;;;;;1.60;1.60;;;32.10;44.30;;;;;;6007018;23;20163;-74
2023/05/07 11:06:10;;;;;;;2.08;2.08;;;32.60;43.10;;;;;;6006938;23;20155;-75
2023/05/07 11:08:56;;;;;;;2.13;2.13;;;32.60;43.40;;;;;;6006935;23;20534;-74
2023/05/07 11:11:58;;;;;;;2.20;2.10;;;32.20;43.00;;;;;;6006818;23;20152;-74
2023/05/07 11:14:51;;;;;;;2.47;2.40;;;31.60;43.20;;;;;;6006767;23;20175;-76
2023/05/07 11:17:17;;;;;;;2.35;1.90;;;31.70;43.20;;;;;;6005614;23;20193;-76
2023/05/07 11:19:51;;;;;;;2.42;2.35;;;31.90;43.00;;;;;;6006809;23;20152;-75
2023/05/07 11:22:31;;;;;;;1.75;1.75;;;32.00;42.70;;;;;;6007016;23;20141;-75
2023/05/07 11:24:59;;;;;;;1.83;1.83;;;32.10;42.60;;;;;;6006765;23;20524;-75
2023/05/07 11:27:26;;;;;;;2.03;2.00;;;32.40;44.80;;;;;;6007331;23;20155;-75
2023/05/07 11:29:52;;;;;;;1.90;1.75;;;32.60;43.70;;;;;;6006916;23;20152;-76
2023/05/07 11:32:28;;;;;;;1.88;1.88;;;32.50;41.60;;;;;;6006635;23;20156;-76
2023/05/07 11:34:55;;;;;;;2.60;1.85;;;32.50;42.40;;;;;;6006842;23;20156;-74
2023/05/07 11:37:22;;;;;;;1.88;1.88;;;32.30;42.00;;;;;;6006501;23;20152;-76
2023/05/07 11:39:48;;;;;;;2.03;2.03;;;32.30;40.80;;;;;;6006815;23;20520;-74
2023/05/07 11:42:31;;;;;;;2.53;2.42;;;32.50;42.90;;;;;;6006500;23;20155;-74
2023/05/07 11:44:58;;;;;;;2.28;2.05;;;32.50;42.20;;;;;;6003361;23;20148;-75
2023/05/07 11:47:24;;;;;;;2.10;2.00;;;32.90;42.30;;;;;;6003351;23;20175;-75
2023/05/07 11:49:51;;;;;;;2.08;1.98;;;33.50;41.50;;;;;;6005103;23;20159;-74
2023/05/07 11:52:19;;;;;;;1.90;1.80;;;34.10;41.40;;;;;;6004209;23;20695;-75
2023/05/07 11:54:55;;;;;;;2.08;2.00;;;34.00;40.30;;;;;;6003787;23;20152;-75
2023/05/07 11:57:24;;;;;;;2.15;2.13;;;34.10;40.30;;;;;;6004768;23;20140;-76
2023/05/07 11:59:54;;;;;;;2.33;2.33;;;34.20;41.80;;;;;;6005759;23;20159;-73
2023/05/07 12:02:19;;;;;;;2.20;2.05;;;34.40;40.00;;;;;;6005381;23;20277;-76
2023/05/07 12:04:45;;;;;;;2.20;2.08;;;34.70;40.40;;;;;;6004645;23;20180;-75
2023/05/07 12:07:13;;;;;;;1.90;1.90;;;35.20;42.50;;;;;;6005473;23;20183;-74
2023/05/07 12:09:39;;;;;;;1.80;1.80;;;35.80;45.90;;;;;;6006148;23;20360;-74
2023/05/07 12:12:05;;;;;;;1.85;1.85;;;36.10;42.10;;;;;;6005092;23;20235;-74
2023/05/07 12:14:32;;;;;;;1.90;1.80;;;36.50;41.80;;;;;;6005334;23;20151;-74
2023/05/07 12:17:02;;;;;;;2.03;1.92;;;36.70;38.70;;;;;;6005606;23;20659;-75
2023/05/07 12:19:29;;;;;;;2.20;2.10;;;36.70;38.20;;;;;;6005628;23;20144;-74
2023/05/07 12:21:56;;;;;;;2.05;1.85;;;36.90;41.70;;;;;;6003377;23;20164;-74
2023/05/07 12:24:21;;;;;;;1.80;1.80;;;37.10;40.20;;;;;;6005190;23;20178;-75
2023/05/07 12:26:48;;;;;;;1.35;1.35;;;37.60;42.80;;;;;;6005073;23;20600;-75
2023/05/07 12:29:13;;;;;;;1.65;1.52;;;38.10;40.70;;;;;;6004370;23;20195;-75
2023/05/07 12:31:43;;;;;;;1.17;1.17;;;38.50;39.40;;;;;;6004652;23;20226;-75
2023/05/07 12:34:10;;;;;;;1.30;1.30;;;38.90;38.40;;;;;;6004843;23;20208;-75
2023/05/07 12:36:38;;;;;;;1.25;1.25;;;39.40;35.60;;;;;;6003367;23;20160;-75
2023/05/07 12:39:10;;;;;;;1.70;1.60;;;39.70;35.60;;;;;;6003641;23;20177;-75
2023/05/07 12:41:53;;;;;;;1.35;1.35;;;39.80;37.10;;;;;;6004825;23;20163;-75
2023/05/07 12:44:18;;;;;;;1.35;1.35;;;39.90;38.20;;;;;;6004508;23;20669;-75
2023/05/07 12:46:46;;;;;;;1.30;1.30;;;40.10;40.10;;;;;;6005123;23;20152;-75
2023/05/07 12:49:12;;;;;;;1.00;1.00;;;40.30;37.00;;;;;;6005141;23;20150;-75
2023/05/07 12:51:38;;;;;;;1.63;1.45;;;40.40;37.70;;;;;;6005204;23;20156;-76